Terminal Aerodrome Forecast
Issued by NWS Upton, NY

Home | Current Version | Previous Version | Text Only | Print | Product List | Glossary On
Versions: 1 2 3 4 5 6 7 8 9 10 11 12 13 14 15 16 17 18 19 20 21 22 23 24 25 26 27 28
000
FTUS41 KOKX 031933 AAA
TAFLGA
TAF AMD
KLGA 031933Z 0320/0418 05007KT P6SM FEW250
     FM032300 17008KT P6SM SCT250
     FM040200 VRB04KT P6SM BKN250
     FM041100 05008KT P6SM BKN025
     FM041500 05013G20KT P6SM BKN030=

USA.gov is the U.S. government's official web portal to all federal, state and local government web resources and services.